createdAt,value
2019-06-01T00:01:55.624Z,12.44
2019-06-01T00:04:24.052Z,12.29
2019-06-01T00:06:52.476Z,12.21
2019-06-01T00:09:20.898Z,12.14
2019-06-01T00:11:49.642Z,12.08
2019-06-01T00:14:18.200Z,12.07
2019-06-01T00:16:47.913Z,12.05
2019-06-01T00:19:17.321Z,12.16
2019-06-01T00:21:45.747Z,12.18
2019-06-01T00:24:14.605Z,12.25
2019-06-01T00:26:43.679Z,12.30
2019-06-01T00:29:12.391Z,12.28
2019-06-01T00:31:41.256Z,12.20
2019-06-01T00:34:09.758Z,12.11
2019-06-01T00:36:38.154Z,11.96
2019-06-01T00:39:07.442Z,11.86
2019-06-01T00:41:35.866Z,11.80
2019-06-01T00:44:04.523Z,11.73
2019-06-01T00:46:33.291Z,11.66
2019-06-01T00:49:01.699Z,11.62
2019-06-01T00:51:30.463Z,11.56
2019-06-01T00:53:59.259Z,11.53
2019-06-01T00:56:27.677Z,11.49
2019-06-01T00:58:56.415Z,11.48
2019-06-01T01:01:24.832Z,11.45
2019-06-01T01:03:54.448Z,11.43
2019-06-01T01:06:22.926Z,11.41
2019-06-01T01:08:51.348Z,11.39
2019-06-01T01:11:19.942Z,11.35
2019-06-01T01:13:49.230Z,11.32
2019-06-01T01:16:17.658Z,11.31
2019-06-01T01:18:47.630Z,11.30
2019-06-01T01:21:16.420Z,11.30
2019-06-01T01:23:46.103Z,11.27
2019-06-01T01:26:14.626Z,11.21
2019-06-01T01:28:43.030Z,11.13
2019-06-01T01:31:14.103Z,11.07
2019-06-01T01:33:41.607Z,11.00
2019-06-01T01:36:10.017Z,10.96
2019-06-01T01:38:38.495Z,10.93
2019-06-01T01:41:06.912Z,10.90
2019-06-01T01:43:35.313Z,10.91
2019-06-01T01:46:04.778Z,10.88
2019-06-01T01:48:33.179Z,10.86
2019-06-01T01:51:02.740Z,10.84
2019-06-01T01:53:31.188Z,10.81
2019-06-01T01:55:59.615Z,10.80
2019-06-01T01:58:28.022Z,10.79
2019-06-01T02:00:58.374Z,10.75
2019-06-01T02:03:26.584Z,10.77
2019-06-01T02:05:55.005Z,10.74
2019-06-01T02:08:23.719Z,10.71
2019-06-01T02:10:53.319Z,10.68
2019-06-01T02:13:21.865Z,10.70
2019-06-01T02:15:52.065Z,10.61
2019-06-01T02:18:20.428Z,10.45
2019-06-01T02:20:48.831Z,10.39
2019-06-01T02:23:17.261Z,10.36
2019-06-01T02:25:45.668Z,10.38
2019-06-01T02:28:14.073Z,10.39
2019-06-01T02:30:42.482Z,10.37
2019-06-01T02:33:10.905Z,10.36
2019-06-01T02:35:39.311Z,10.35
2019-06-01T02:38:07.764Z,10.34
2019-06-01T02:40:36.489Z,10.34
2019-06-01T02:43:06.911Z,10.32
2019-06-01T02:45:35.429Z,10.28
2019-06-01T02:48:04.489Z,10.23
2019-06-01T02:50:34.065Z,10.21
2019-06-01T02:53:03.589Z,10.15
2019-06-01T02:55:32.056Z,10.11
2019-06-01T02:58:00.552Z,10.10
2019-06-01T03:00:40.885Z,10.06
2019-06-01T03:03:09.376Z,10.02
2019-06-01T03:05:38.214Z,9.98
2019-06-01T03:08:07.860Z,9.96
2019-06-01T03:10:38.033Z,9.93
2019-06-01T03:13:08.771Z,9.93
2019-06-01T03:15:40.224Z,9.93
2019-06-01T03:18:11.846Z,9.93
2019-06-01T03:20:41.284Z,9.91
2019-06-01T03:23:12.093Z,9.81
2019-06-01T03:25:41.413Z,9.75
2019-06-01T03:28:13.162Z,9.73
2019-06-01T03:30:45.382Z,9.74
2019-06-01T03:33:14.161Z,9.68
2019-06-01T03:35:43.308Z,9.66
2019-06-01T03:38:11.723Z,9.62
2019-06-01T03:40:40.293Z,9.59
2019-06-01T03:43:09.392Z,9.53
2019-06-01T03:45:37.928Z,9.53
2019-06-01T03:48:06.737Z,9.56
2019-06-01T03:50:35.235Z,9.53
2019-06-01T03:53:03.937Z,9.47
2019-06-01T03:55:32.303Z,9.45
2019-06-01T03:58:00.986Z,9.42
2019-06-01T04:00:29.402Z,9.40
2019-06-01T04:02:57.807Z,9.35
2019-06-01T04:05:26.208Z,9.38
2019-06-01T04:07:54.599Z,9.45
2019-06-01T04:10:23.025Z,9.49
2019-06-01T04:12:51.429Z,9.61
2019-06-01T04:15:19.846Z,9.67
2019-06-01T04:17:48.602Z,9.72
2019-06-01T04:20:17.180Z,9.78
2019-06-01T04:22:45.587Z,9.85
2019-06-01T04:25:13.998Z,9.86
2019-06-01T04:27:42.395Z,9.89
2019-06-01T04:30:11.553Z,9.95
2019-06-01T04:32:49.517Z,10.06
2019-06-01T04:35:11.116Z,10.17
2019-06-01T04:37:39.552Z,10.42
2019-06-01T04:40:08.036Z,10.71
2019-06-01T04:42:36.445Z,11.09
2019-06-01T04:45:08.926Z,11.25
2019-06-01T04:47:37.164Z,11.40
2019-06-01T04:50:08.612Z,11.67
2019-06-01T04:52:37.277Z,11.77
2019-06-01T04:55:09.189Z,11.84
2019-06-01T04:57:37.508Z,11.92
2019-06-01T05:00:12.711Z,12.00
2019-06-01T05:02:37.739Z,12.29
2019-06-01T05:05:07.226Z,12.48
2019-06-01T05:07:35.934Z,12.64
2019-06-01T05:10:07.303Z,12.81
2019-06-01T05:12:35.951Z,12.93
2019-06-01T05:15:07.609Z,13.11
2019-06-01T05:17:36.096Z,13.28
2019-06-01T05:20:06.363Z,13.37
2019-06-01T05:22:34.725Z,13.55
2019-06-01T05:25:03.455Z,13.76
2019-06-01T05:27:32.017Z,13.98
2019-06-01T05:30:00.421Z,14.37
2019-06-01T05:32:28.909Z,14.53
2019-06-01T05:34:57.310Z,14.76
2019-06-01T05:37:25.719Z,14.94
2019-06-01T05:39:54.126Z,15.17
2019-06-01T05:42:22.537Z,15.29
2019-06-01T05:44:50.955Z,15.38
2019-06-01T05:47:19.392Z,15.49
2019-06-01T05:49:47.803Z,15.59
2019-06-01T05:52:16.692Z,15.67
2019-06-01T05:54:45.195Z,15.79
2019-06-01T05:57:14.690Z,15.87
2019-06-01T05:59:43.108Z,16.01
2019-06-01T06:02:11.526Z,16.16
2019-06-01T06:04:39.925Z,16.32
2019-06-01T06:07:08.343Z,16.46
2019-06-01T06:09:36.787Z,16.60
2019-06-01T06:12:05.178Z,16.77
2019-06-01T06:14:33.590Z,17.13
2019-06-01T06:17:02.003Z,17.16
2019-06-01T06:19:30.472Z,17.26
2019-06-01T06:21:58.897Z,17.38
2019-06-01T06:24:27.305Z,17.44
2019-06-01T06:26:55.716Z,17.64
2019-06-01T06:29:24.114Z,17.91
2019-06-01T06:31:52.536Z,18.06
2019-06-01T06:34:21.647Z,18.32
2019-06-01T06:36:50.043Z,18.33
2019-06-01T06:39:18.488Z,18.31
2019-06-01T06:41:46.887Z,18.44
2019-06-01T06:44:16.329Z,18.55
2019-06-01T06:46:44.800Z,18.68
2019-06-01T06:49:13.198Z,18.63
2019-06-01T06:51:41.594Z,18.60
2019-06-01T06:54:10.086Z,18.67
2019-06-01T06:56:38.513Z,18.85
2019-06-01T06:59:06.923Z,18.82
2019-06-01T07:01:35.386Z,19.13
2019-06-01T07:04:12.684Z,19.53
2019-06-01T07:06:34.127Z,20.02
2019-06-01T07:09:02.713Z,20.47
2019-06-01T07:11:31.536Z,20.75
2019-06-01T07:14:00.012Z,21.06
2019-06-01T07:16:28.446Z,21.34
2019-06-01T07:18:57.110Z,21.59
2019-06-01T07:21:25.850Z,22.13
2019-06-01T07:23:54.680Z,22.38
2019-06-01T07:26:24.122Z,22.41
2019-06-01T07:28:52.591Z,22.54
2019-06-01T07:31:22.057Z,22.84
2019-06-01T07:33:50.589Z,23.02
2019-06-01T07:36:20.174Z,23.24
2019-06-01T07:38:49.079Z,23.43
2019-06-01T07:41:17.824Z,23.47
2019-06-01T07:43:46.605Z,23.57
2019-06-01T07:46:15.003Z,23.66
2019-06-01T07:48:43.670Z,23.69
2019-06-01T07:51:12.075Z,23.78
2019-06-01T07:53:40.501Z,23.87
2019-06-01T07:56:09.207Z,23.95
2019-06-01T07:58:37.642Z,24.06
2019-06-01T08:01:06.062Z,24.24
2019-06-01T08:03:35.097Z,24.45
2019-06-01T08:06:03.672Z,24.56
2019-06-01T08:08:32.077Z,25.04
2019-06-01T08:11:00.492Z,25.04
2019-06-01T08:13:32.239Z,25.16
2019-06-01T08:15:59.651Z,25.23
2019-06-01T08:18:28.233Z,25.44
2019-06-01T08:20:56.744Z,25.66
2019-06-01T08:23:26.177Z,25.87
2019-06-01T08:25:54.550Z,25.74
2019-06-01T08:28:22.947Z,25.89
2019-06-01T08:30:51.379Z,26.00
2019-06-01T08:33:19.782Z,26.13
2019-06-01T08:35:48.221Z,26.19
2019-06-01T08:38:16.602Z,26.03
2019-06-01T08:40:45.091Z,26.03
2019-06-01T08:43:14.386Z,26.09
2019-06-01T08:45:42.804Z,26.31
2019-06-01T08:48:12.206Z,26.59
2019-06-01T08:50:40.649Z,26.78
2019-06-01T08:53:09.057Z,26.90
2019-06-01T08:55:37.479Z,26.85
2019-06-01T08:58:05.875Z,26.82
2019-06-01T09:00:34.744Z,26.84
2019-06-01T09:03:03.187Z,27.13
2019-06-01T09:05:31.641Z,27.02
2019-06-01T09:08:00.007Z,27.11
2019-06-01T09:10:29.235Z,27.18
2019-06-01T09:12:57.623Z,27.00
2019-06-01T09:15:27.457Z,27.12
2019-06-01T09:17:56.048Z,26.84
2019-06-01T09:20:25.479Z,26.96
2019-06-01T09:22:53.987Z,27.34
2019-06-01T09:25:22.396Z,27.69
2019-06-01T09:27:50.833Z,27.09
2019-06-01T09:30:19.476Z,27.10
2019-06-01T09:32:47.877Z,27.22
2019-06-01T09:35:16.370Z,27.28
2019-06-01T09:37:45.828Z,27.52
2019-06-01T09:40:16.063Z,27.85
2019-06-01T09:42:44.490Z,28.07
2019-06-01T09:45:13.433Z,27.99
2019-06-01T09:47:41.832Z,27.92
2019-06-01T09:50:10.616Z,27.66
2019-06-01T09:52:39.009Z,27.41
2019-06-01T09:55:07.966Z,27.15
2019-06-01T09:57:38.353Z,27.15
2019-06-01T10:00:09.815Z,27.36
2019-06-01T10:02:38.369Z,27.23
2019-06-01T10:05:07.363Z,27.32
2019-06-01T10:07:37.023Z,27.34
2019-06-01T10:10:09.370Z,27.61
2019-06-01T10:12:38.194Z,27.98
2019-06-01T10:15:07.478Z,27.91
2019-06-01T10:17:37.053Z,27.60
2019-06-01T10:20:07.195Z,27.66
2019-06-01T10:22:35.599Z,27.74
2019-06-01T10:25:07.909Z,27.88
2019-06-01T10:27:36.781Z,28.08
2019-06-01T10:30:09.055Z,28.11
2019-06-01T10:32:37.992Z,28.06
2019-06-01T10:35:07.886Z,28.11
2019-06-01T10:37:37.612Z,28.33
2019-06-01T10:40:07.099Z,28.37
2019-06-01T10:42:36.078Z,28.42
2019-06-01T10:45:06.387Z,28.54
2019-06-01T10:47:38.042Z,28.79
2019-06-01T10:50:07.419Z,28.85
2019-06-01T10:52:36.281Z,28.95
2019-06-01T10:55:06.920Z,28.99
2019-06-01T10:57:36.621Z,28.28
2019-06-01T11:00:12.120Z,28.18
2019-06-01T11:02:40.920Z,28.31
2019-06-01T11:05:09.861Z,27.82
2019-06-01T11:07:39.082Z,27.57
2019-06-01T11:10:08.598Z,27.81
2019-06-01T11:12:37.022Z,27.63
2019-06-01T11:15:07.086Z,27.81
2019-06-01T11:17:35.598Z,27.57
2019-06-01T11:20:06.937Z,27.91
2019-06-01T11:22:35.659Z,28.40
2019-06-01T11:25:05.425Z,28.81
2019-06-01T11:27:35.502Z,28.86
2019-06-01T11:30:09.280Z,29.05
2019-06-01T11:32:39.478Z,29.28
2019-06-01T11:35:09.718Z,28.86
2019-06-01T11:37:38.479Z,28.96
2019-06-01T11:40:07.746Z,29.04
2019-06-01T11:42:36.900Z,29.32
2019-06-01T11:45:09.988Z,29.48
2019-06-01T11:47:38.876Z,29.65
2019-06-01T11:50:07.645Z,29.78
2019-06-01T11:52:37.061Z,29.90
2019-06-01T11:55:09.993Z,29.93
2019-06-01T11:57:39.494Z,29.96
2019-06-01T12:00:15.569Z,29.81
2019-06-01T12:02:43.980Z,29.73
2019-06-01T12:05:13.069Z,29.73
2019-06-01T12:07:41.949Z,29.81
2019-06-01T12:10:12.342Z,29.63
2019-06-01T12:12:42.234Z,29.28
2019-06-01T12:15:11.376Z,29.36
2019-06-01T12:17:40.664Z,29.61
2019-06-01T12:20:09.864Z,29.59
2019-06-01T12:22:38.807Z,29.87
2019-06-01T12:25:07.667Z,29.63
2019-06-01T12:27:37.196Z,29.64
2019-06-01T12:30:09.919Z,29.62
2019-06-01T12:32:38.318Z,29.33
2019-06-01T12:35:08.959Z,29.14
2019-06-01T12:37:58.388Z,29.32
2019-06-01T12:40:08.258Z,28.77
2019-06-01T12:42:36.653Z,28.96
2019-06-01T12:45:10.119Z,29.18
2019-06-01T12:47:39.789Z,29.41
2019-06-01T12:50:08.417Z,29.60
2019-06-01T12:52:37.186Z,29.89
2019-06-01T12:55:06.941Z,29.95
2019-06-01T12:57:35.419Z,29.67
2019-06-01T13:00:08.687Z,29.73
2019-06-01T13:02:37.936Z,29.79
2019-06-01T13:05:07.069Z,30.04
2019-06-01T13:07:51.002Z,30.23
2019-06-01T13:10:07.403Z,30.35
2019-06-01T13:12:36.088Z,30.44
2019-06-01T13:15:06.529Z,30.46
2019-06-01T13:17:34.937Z,30.21
2019-06-01T13:20:07.806Z,29.98
2019-06-01T13:22:36.283Z,29.36
2019-06-01T13:25:06.526Z,29.38
2019-06-01T13:27:35.365Z,29.42
2019-06-01T13:30:08.101Z,29.65
2019-06-01T13:32:36.523Z,29.72
2019-06-01T13:35:09.016Z,29.88
2019-06-01T13:37:37.709Z,30.03
2019-06-01T13:40:07.450Z,30.10
2019-06-01T13:42:35.863Z,30.17
2019-06-01T13:45:09.095Z,30.35
2019-06-01T13:47:37.507Z,30.64
2019-06-01T13:50:07.319Z,30.84
2019-06-01T13:52:35.936Z,30.92
2019-06-01T13:55:06.167Z,31.04
2019-06-01T13:57:34.573Z,31.11
2019-06-01T14:00:04.581Z,31.16
2019-06-01T14:02:32.991Z,31.16
2019-06-01T14:05:01.399Z,31.18
2019-06-01T14:07:29.804Z,31.25
2019-06-01T14:09:58.209Z,31.35
2019-06-01T14:12:26.616Z,31.18
2019-06-01T14:14:55.614Z,31.05
2019-06-01T14:17:24.128Z,31.06
2019-06-01T14:19:53.722Z,31.24
2019-06-01T14:22:22.251Z,30.93
2019-06-01T14:25:06.443Z,30.74
2019-06-01T14:27:20.805Z,30.74
2019-06-01T14:29:50.280Z,30.62
2019-06-01T14:32:18.739Z,30.61
2019-06-01T14:34:48.500Z,30.59
2019-06-01T14:37:17.045Z,30.36
2019-06-01T14:39:46.654Z,30.62
2019-06-01T14:42:15.125Z,30.70
2019-06-01T14:44:43.539Z,30.77
2019-06-01T14:47:18.461Z,30.84
2019-06-01T14:49:44.755Z,31.34
2019-06-01T14:52:13.169Z,31.50
2019-06-01T14:54:41.581Z,31.89
2019-06-01T14:57:09.991Z,32.21
2019-06-01T14:59:38.734Z,32.55
2019-06-01T15:02:07.131Z,32.67
2019-06-01T15:04:35.586Z,32.32
2019-06-01T15:07:04.397Z,31.66
2019-06-01T15:09:32.818Z,30.68
2019-06-01T15:12:01.230Z,30.10
2019-06-01T15:14:29.640Z,29.90
2019-06-01T15:16:58.039Z,29.88
2019-06-01T15:19:26.455Z,29.88
2019-06-01T15:21:56.106Z,29.97
2019-06-01T15:24:24.749Z,30.03
2019-06-01T15:26:54.564Z,29.88
2019-06-01T15:29:23.061Z,29.70
2019-06-01T15:31:51.453Z,29.66
2019-06-01T15:34:19.855Z,29.64
2019-06-01T15:36:48.257Z,29.60
2019-06-01T15:39:24.584Z,29.38
2019-06-01T15:41:46.808Z,29.30
2019-06-01T15:44:15.224Z,29.24
2019-06-01T15:46:43.633Z,29.14
2019-06-01T15:49:12.048Z,29.04
2019-06-01T15:51:40.441Z,29.06
2019-06-01T15:54:08.863Z,28.96
2019-06-01T15:56:37.262Z,28.92
2019-06-01T15:59:05.674Z,28.88
2019-06-01T16:01:34.151Z,28.81
2019-06-01T16:04:03.421Z,28.83
2019-06-01T16:06:31.952Z,28.88
2019-06-01T16:09:01.666Z,28.86
2019-06-01T16:11:30.260Z,28.85
2019-06-01T16:13:59.793Z,28.85
2019-06-01T16:16:28.359Z,28.83
2019-06-01T16:19:02.370Z,28.72
2019-06-01T16:21:26.895Z,28.59
2019-06-01T16:23:56.272Z,28.56
2019-06-01T16:26:24.800Z,28.46
2019-06-01T16:28:54.347Z,28.33
2019-06-01T16:31:22.898Z,28.29
2019-06-01T16:33:51.289Z,28.24
2019-06-01T16:36:19.721Z,28.22
2019-06-01T16:38:48.119Z,28.17
2019-06-01T16:41:16.555Z,28.15
2019-06-01T16:43:44.954Z,28.17
2019-06-01T16:46:13.382Z,28.17
2019-06-01T16:48:41.874Z,28.17
2019-06-01T16:51:10.270Z,28.13
2019-06-01T16:53:38.921Z,28.09
2019-06-01T16:56:07.589Z,28.06
2019-06-01T16:58:35.985Z,28.09
2019-06-01T17:01:05.099Z,28.07
2019-06-01T17:03:33.558Z,28.08
2019-06-01T17:06:02.875Z,28.10
2019-06-01T17:08:31.350Z,28.15
2019-06-01T17:11:00.700Z,28.22
2019-06-01T17:13:29.065Z,28.27
2019-06-01T17:15:58.826Z,28.22
2019-06-01T17:18:27.412Z,28.22
2019-06-01T17:20:57.253Z,28.15
2019-06-01T17:23:27.790Z,28.10
2019-06-01T17:25:55.927Z,28.08
2019-06-01T17:28:24.326Z,28.06
2019-06-01T17:30:52.753Z,28.05
2019-06-01T17:33:21.166Z,28.02
2019-06-01T17:35:49.564Z,27.96
2019-06-01T17:38:17.985Z,27.90
2019-06-01T17:40:46.397Z,27.84
2019-06-01T17:43:14.904Z,27.80
2019-06-01T17:45:43.360Z,27.77
2019-06-01T17:48:24.686Z,27.68
2019-06-01T17:50:41.960Z,27.64
2019-06-01T17:53:10.364Z,27.57
2019-06-01T17:55:39.509Z,27.53
2019-06-01T17:58:10.005Z,27.47
2019-06-01T18:00:38.888Z,27.42
2019-06-01T18:03:07.970Z,27.36
2019-06-01T18:05:37.055Z,27.28
2019-06-01T18:08:06.586Z,27.12
2019-06-01T18:10:52.039Z,27.02
2019-06-01T18:13:06.785Z,26.96
2019-06-01T18:15:35.639Z,26.91
2019-06-01T18:18:06.368Z,26.84
2019-06-01T18:20:35.722Z,26.75
2019-06-01T18:23:05.655Z,26.66
2019-06-01T18:25:34.721Z,26.57
2019-06-01T18:28:04.423Z,26.47
2019-06-01T18:30:32.947Z,26.38
2019-06-01T18:33:02.813Z,26.27
2019-06-01T18:35:32.408Z,26.16
2019-06-01T18:38:01.104Z,26.10
2019-06-01T18:40:29.765Z,26.02
2019-06-01T18:43:01.236Z,25.95
2019-06-01T18:45:30.204Z,25.87
2019-06-01T18:47:58.756Z,25.82
2019-06-01T18:50:27.289Z,25.67
2019-06-01T18:52:56.079Z,25.49
2019-06-01T18:55:27.481Z,25.42
2019-06-01T18:57:57.834Z,25.33
2019-06-01T19:00:26.379Z,25.25
2019-06-01T19:02:54.852Z,25.15
2019-06-01T19:05:23.278Z,25.07
2019-06-01T19:07:51.688Z,24.91
2019-06-01T19:10:21.474Z,24.81
2019-06-01T19:12:49.869Z,24.72
2019-06-01T19:15:28.019Z,24.60
2019-06-01T19:17:48.947Z,24.44
2019-06-01T19:20:17.796Z,24.27
2019-06-01T19:22:46.218Z,24.08
2019-06-01T19:25:15.067Z,23.96
2019-06-01T19:27:43.478Z,23.79
2019-06-01T19:30:13.026Z,23.59
2019-06-01T19:32:41.884Z,23.37
2019-06-01T19:35:11.599Z,23.23
2019-06-01T19:37:42.423Z,23.07
2019-06-01T19:40:11.434Z,22.96
2019-06-01T19:42:39.854Z,22.85
2019-06-01T19:45:22.539Z,22.71
2019-06-01T19:47:39.411Z,22.56
2019-06-01T19:50:08.769Z,22.44
2019-06-01T19:52:37.656Z,22.31
2019-06-01T19:55:06.990Z,22.16
2019-06-01T19:57:35.397Z,22.02
2019-06-01T20:00:06.582Z,21.93
2019-06-01T20:02:35.220Z,21.82
2019-06-01T20:05:03.687Z,21.71
2019-06-01T20:07:32.108Z,21.56
2019-06-01T20:10:00.515Z,21.42
2019-06-01T20:12:29.155Z,21.27
2019-06-01T20:14:57.948Z,21.08
2019-06-01T20:17:26.744Z,20.91
2019-06-01T20:19:55.268Z,20.76
2019-06-01T20:22:23.653Z,20.59
2019-06-01T20:24:52.067Z,20.41
2019-06-01T20:27:21.592Z,20.29
2019-06-01T20:29:50.051Z,20.21
2019-06-01T20:32:18.459Z,20.10
2019-06-01T20:34:48.031Z,19.97
2019-06-01T20:37:16.454Z,19.82
2019-06-01T20:39:44.841Z,19.64
2019-06-01T20:42:22.289Z,19.52
2019-06-01T20:44:43.714Z,19.44
2019-06-01T20:47:14.600Z,19.42
2019-06-01T20:49:42.266Z,19.35
2019-06-01T20:52:10.698Z,19.23
2019-06-01T20:54:39.101Z,19.10
2019-06-01T20:57:07.542Z,18.94
2019-06-01T20:59:35.935Z,18.76
2019-06-01T21:02:04.531Z,18.64
2019-06-01T21:04:32.915Z,18.56
2019-06-01T21:07:01.332Z,18.52
2019-06-01T21:09:29.753Z,18.45
2019-06-01T21:11:58.186Z,18.39
2019-06-01T21:14:26.634Z,18.28
2019-06-01T21:16:55.058Z,18.16
2019-06-01T21:19:24.491Z,18.10
2019-06-01T21:21:52.966Z,18.07
2019-06-01T21:24:23.014Z,17.97
2019-06-01T21:26:51.560Z,17.84
2019-06-01T21:29:20.908Z,17.69
2019-06-01T21:31:49.365Z,17.60
2019-06-01T21:34:20.464Z,17.54
2019-06-01T21:36:47.887Z,17.49
2019-06-01T21:39:17.525Z,17.55
2019-06-01T21:41:46.256Z,17.62
2019-06-01T21:44:15.399Z,17.68
2019-06-01T21:46:43.847Z,17.60
2019-06-01T21:49:12.505Z,17.47
2019-06-01T21:51:41.035Z,17.35
2019-06-01T21:54:09.469Z,17.23
2019-06-01T21:56:37.861Z,17.11
2019-06-01T21:59:06.285Z,17.00
2019-06-01T22:01:34.925Z,16.87
2019-06-01T22:04:03.412Z,16.78
2019-06-01T22:06:31.826Z,16.72
2019-06-01T22:09:00.238Z,16.69
2019-06-01T22:11:28.908Z,16.61
2019-06-01T22:13:57.335Z,16.57
2019-06-01T22:16:25.853Z,16.59
2019-06-01T22:18:54.321Z,16.62
2019-06-01T22:21:23.833Z,16.62
2019-06-01T22:23:52.327Z,16.56
2019-06-01T22:26:21.904Z,16.42
2019-06-01T22:28:50.433Z,16.29
2019-06-01T22:31:20.105Z,16.25
2019-06-01T22:33:48.663Z,16.30
2019-06-01T22:36:17.037Z,16.30
2019-06-01T22:38:45.434Z,16.22
2019-06-01T22:41:13.841Z,16.06
2019-06-01T22:43:46.798Z,15.91
2019-06-01T22:46:12.369Z,15.80
2019-06-01T22:48:40.796Z,15.69
2019-06-01T22:51:09.187Z,15.67
2019-06-01T22:53:37.589Z,15.65
2019-06-01T22:56:06.279Z,15.62
2019-06-01T22:58:34.689Z,15.55
2019-06-01T23:01:03.271Z,15.55
2019-06-01T23:03:32.162Z,15.62
2019-06-01T23:06:00.662Z,15.65
2019-06-01T23:08:29.544Z,15.59
2019-06-01T23:10:58.385Z,15.50
2019-06-01T23:13:28.099Z,15.39
2019-06-01T23:15:56.593Z,15.31
2019-06-01T23:18:25.639Z,15.28
2019-06-01T23:20:54.098Z,15.23
2019-06-01T23:23:23.622Z,15.17
2019-06-01T23:25:52.374Z,15.11
2019-06-01T23:28:21.941Z,15.04
2019-06-01T23:30:50.733Z,15.04
2019-06-01T23:33:19.142Z,15.02
2019-06-01T23:35:47.565Z,14.97
2019-06-01T23:38:15.961Z,14.90
2019-06-01T23:40:44.428Z,14.87
2019-06-01T23:43:12.869Z,14.86
2019-06-01T23:45:41.261Z,14.99
2019-06-01T23:48:09.687Z,15.06
2019-06-01T23:50:38.094Z,15.08
2019-06-01T23:53:13.591Z,15.02
2019-06-01T23:55:36.663Z,14.92
2019-06-01T23:58:05.127Z,14.84
